Flight Track Log - Related Links

Times and Time Zones

All times are in EDT time to prevent confusion due to time zone crossing. See the N704MT flight status page for this flight to view local times or setup timezone preferences in your user account.

Time Position Orientation Groundspeed Altitude Reporting Facility
EDT Latitude Longitude Course Direction KTS MPH feet Rate Location/Type
Sun 03:57:54 PM 38.7933 -86.5253 233° Southwest 95 109 2,300  Level Indianapolis Center
Sun 03:58:56 PM 38.7814 -86.5589 246° West 95 109 2,500 290 Climbing Indianapolis Center
Sun 04:01:00 PM 38.7606 -86.6203 246° West 96 110 3,200 323 Climbing Indianapolis Center
Sun 04:02:02 PM 38.7511 -86.6494 247° West 94 108 3,500 242 Climbing Indianapolis Center
Sun 04:03:04 PM 38.7406 -86.6789 245° Southwest 91 105 3,700 194 Climbing Indianapolis Center
Sun 04:04:06 PM 38.7286 -86.7139 246° West 90 104 3,900 97 Climbing Indianapolis Center
Sun 04:05:08 PM 38.7158 -86.7467 243° Southwest 96 110 3,900  Level Indianapolis Center
Sun 04:06:10 PM 38.7031 -86.7811 245° Southwest 103 119 3,900  Level Indianapolis Center
Sun 04:07:12 PM 38.6908 -86.8161 246° West 106 122 3,900  Level Indianapolis Center
Sun 04:08:14 PM 38.6792 -86.8503 246° West 106 122 3,900  Level Indianapolis Center
Sun 04:09:16 PM 38.6661 -86.8844 244° Southwest 105 121 3,900 48 Level Indianapolis Center
Sun 04:10:18 PM 38.6564 -86.9175 249° West 103 119 4,000  Climbing Indianapolis Center
Sun 04:11:20 PM 38.6417 -86.9567 244° Southwest 102 117 3,900 -48 Descending Indianapolis Center
Sun 04:12:22 PM 38.6303 -86.9889 246° West 101 116 3,900 48 Level Indianapolis Center
Sun 04:13:24 PM 38.6186 -87.0217 246° West 100 115 4,000 48 Climbing Indianapolis Center
Sun 04:14:26 PM 38.6069 -87.0539 245° Southwest 100 115 4,000  Level Indianapolis Center
Sun 04:15:28 PM 38.5950 -87.0864 245° Southwest 100 115 4,000 -49 Level Indianapolis Center
Sun 04:16:29 PM 38.5825 -87.1183 243° Southwest 100 115 3,900  Descending Indianapolis Center
Sun 04:17:31 PM 38.5711 -87.1514 246° West 101 116 4,000  Climbing Indianapolis Center
Sun 04:18:33 PM 38.5567 -87.1897 244° Southwest 100 115 3,900  Descending Indianapolis Center
Sun 04:19:35 PM 38.5458 -87.2219 247° West 100 115 4,000 32 Climbing Indianapolis Center
Sun 04:21:39 PM 38.5219 -87.2839 244° Southwest 98 113 4,000  Level Indianapolis Center
Sun 04:22:41 PM 38.5097 -87.3161 244° Southwest 99 114 4,000  Level Indianapolis Center
Sun 04:23:43 PM 38.4989 -87.3494 247° West 100 115 4,000  Level Indianapolis Center
Sun 04:24:45 PM 38.4875 -87.3828 246° West 102 117 4,000  Level Indianapolis Center
Sun 04:25:47 PM 38.4708 -87.4211 241° Southwest 102 117 4,000  Level Indianapolis Center
Sun 04:26:49 PM 38.4581 -87.4522 242° Southwest 100 115 4,000  Level Indianapolis Center
Sun 04:27:51 PM 38.4456 -87.4850 244° Southwest 101 116 4,000  Level Indianapolis Center
Sun 04:28:53 PM 38.4333 -87.5164 244° Southwest 101 116 4,000  Level Indianapolis Center
Sun 04:29:55 PM 38.4203 -87.5478 242° Southwest 100 115 4,000 -48 Level Indianapolis Center
Sun 04:30:57 PM 38.4064 -87.5789 240° Southwest 100 115 3,900  Descending Indianapolis Center
Sun 04:31:59 PM 38.3936 -87.6094 242° Southwest 99 114 4,000 63 Climbing Indianapolis Center
Sun 04:34:09 PM 38.3672 -87.6800 245° Southwest 100 115 4,100  Climbing Kansas City Center
Sun 04:35:05 PM 38.3564 -87.7144 248° West 102 117 4,000 -51 Descending Indianapolis Center
Sun 04:36:07 PM 38.3436 -87.7478 244° Southwest 103 119 4,000  Level Indianapolis Center
Sun 04:37:09 PM 38.3325 -87.7806 247° West 103 119 4,000 -48 Level Indianapolis Center
Sun 04:38:11 PM 38.3203 -87.8136 245° Southwest 102 117 3,900 -48 Descending Indianapolis Center
Sun 04:39:13 PM 38.3078 -87.8453 243° Southwest 101 116 3,900  Level Indianapolis Center
Sun 04:40:15 PM 38.2928 -87.8819 242° Southwest 99 114 3,900  Level Indianapolis Center
Sun 04:41:17 PM 38.2831 -87.9142 249° West 98 113 3,900 48 Level Indianapolis Center
Sun 04:42:19 PM 38.2719 -87.9453 246° West 97 112 4,000  Climbing Indianapolis Center
Sun 04:43:21 PM 38.2583 -87.9772 242° Southwest 99 114 3,900  Descending Indianapolis Center
Sun 04:44:23 PM 38.2453 -88.0089 242° Southwest 100 115 4,000 48 Climbing Indianapolis Center
Sun 04:45:25 PM 38.2339 -88.0408 246° West 100 115 4,000 -48 Level Indianapolis Center
Sun 04:46:27 PM 38.2217 -88.0747 245° Southwest 102 117 3,900  Descending Indianapolis Center
Sun 04:47:29 PM 38.2067 -88.1136 244° Southwest 102 117 4,000 48 Climbing Indianapolis Center
Sun 04:48:31 PM 38.1953 -88.1453 245° Southwest 101 116 4,000 -48 Level Indianapolis Center
Sun 04:49:33 PM 38.1811 -88.1772 241° Southwest 101 116 3,900 -48 Descending Indianapolis Center
Sun 04:50:35 PM 38.1653 -88.2083 237° Southwest 102 117 3,900  Level Indianapolis Center
Sun 04:51:37 PM 38.1533 -88.2428 246° West 104 120 3,900  Level Indianapolis Center
Sun 04:52:39 PM 38.1431 -88.2761 249° West 104 120 3,900  Level Indianapolis Center
Sun 04:53:41 PM 38.1311 -88.3094 246° West 103 119 3,900  Level Indianapolis Center
Sun 04:54:43 PM 38.1194 -88.3419 245° Southwest 102 117 3,900  Level Indianapolis Center
Sun 04:55:45 PM 38.1081 -88.3844 251° West 103 119 3,900  Level Indianapolis Center
Sun 04:56:47 PM 38.0986 -88.4178 250° West 102 117 3,900  Level Indianapolis Center
Sun 04:57:49 PM 38.0886 -88.4528 250° West 103 119 3,900  Level Indianapolis Center
Sun 04:58:51 PM 38.0756 -88.4864 244° Southwest 104 120 3,900 49 Level Indianapolis Center
Sun 04:59:52 PM 38.0628 -88.5206 245° Southwest 105 121 4,000 46 Climbing Indianapolis Center
Sun 05:01:02 PM 38.0478 -88.5600 244° Southwest 105 121 4,000 45 Level Kansas City Center
Sun 05:02:04 PM 38.0303 -88.5861 230° Southwest 101 116 4,100 -48 Climbing Kansas City Center
Sun 05:03:06 PM 38.0097 -88.6136 227° Southwest 100 115 3,900 -48 Descending Kansas City Center
Sun 05:04:08 PM 37.9917 -88.6369 226° Southwest 98 113 4,000  Climbing Kansas City Center
Sun 05:05:10 PM 37.9700 -88.6647 225° Southwest 98 113 3,900 -13 Descending Kansas City Center
Sun 05:07:00 PM 37.9289 -88.7047 218° Southwest  Level FlightAware Approximate
Sun 05:11:35 PM 37.8367 -88.8267 225° Southwest 55 63 3,900  Level Kansas City Center
Sun 05:12:37 PM 37.8114 -88.8547 221° Southwest 106 122 4,000 Climbing Kansas City Center
Sun 05:14:00 PM 37.7862 -88.8805 225° Southwest  Level FlightAware Approximate
Sun 05:14:00 PM 37.7833 -88.8891 224° Southwest  Level FlightAware Approximate
Sun 05:15:00 PM 37.7661 -88.9056 225° Southwest  Level FlightAware Approximate
Sun 05:16:00 PM 37.7460 -88.9307 225° Southwest  Level FlightAware Approximate
Sun 05:21:00 PM 37.6412 -89.0628 224° Southwest  Level FlightAware Approximate
Sun 05:22:00 PM 37.6209 -89.0876 224° Southwest  Level FlightAware Approximate
Sun 05:22:07 PM 37.6356 -89.0828 270° West 127 146 4,000  Level Kansas City Center
Sun 05:23:00 PM 37.6006 -89.1123 224° Southwest  Level FlightAware Approximate
Sun 05:23:09 PM 37.6147 -89.1167 232° Southwest 122 140 3,700  Level Kansas City Center
Sun 05:24:00 PM 37.5833 -89.1387 270° West  Level FlightAware Approximate
Sun 05:24:11 PM 37.5919 -89.1408 220° Southwest 115 132 3,200  Level Kansas City Center
Sun 05:25:00 PM 37.5834 -89.1744 270° West  Level FlightAware Approximate
Sun 05:26:00 PM 37.5834 -89.2100 270° West  Level FlightAware Approximate
Sun 05:26:16 PM 37.5844 -89.2156 263° West 110 127 2,600  Level Kansas City Center
Sun 05:27:00 PM 37.5833 -89.2456 270° West  Level FlightAware Approximate
Sun 05:27:18 PM 37.5831 -89.2469 267° West 103 119 2,600  Level Kansas City Center
Sun 05:28:20 PM 37.5983 -89.2489 354° North 94 108 2,700 97 Climbing Kansas City Center
Sun 05:30:00 PM 37.6450 -89.2500 North  Level FlightAware Approximate
Sun 05:37:00 PM 37.7667 -89.2500 North  Level FlightAware Approximate
Sun 05:38:00 PM 37.7781 -89.2520 North  Level Estimated
Sun 05:39:00 PM 37.7781 -89.2520 North  Level Estimated
Sun 05:40:00 PM 37.7781 -89.2520 North  Level Estimated
Sun 05:41:00 PM 37.7781 -89.2520 North  Level Estimated

Login

Don't have an account? Register now (free) for customized features, flight alerts, and more!